Time;durP1;ratioP1;P1;durP2;ratioP2;P2;SDS_P1;SDS_P2;PMS_P1;PMS_P2;Temp;Humidity;BMP_temperature;BMP_pressure;BME280_temperature;BME280_humidity;BME280_pressure;Samples;Min_cycle;Max_cycle;Signal;HPM_P1;HPM_P2
2020/12/31 00:01:15;;;;;;;1.90;1.20;;;0.60;99.90;;;;;;4980064;28;21017;-72
2020/12/31 00:03:41;;;;;;;2.10;1.20;;;0.60;99.90;;;;;;4978509;28;20266;-70
2020/12/31 00:06:07;;;;;;;1.13;1.02;;;0.60;99.90;;;;;;4975163;28;20736;-71
2020/12/31 00:08:32;;;;;;;1.20;1.10;;;0.60;99.90;;;;;;4975103;28;20242;-71
2020/12/31 00:10:58;;;;;;;1.50;1.20;;;0.70;99.90;;;;;;4977618;28;20196;-70
2020/12/31 00:13:24;;;;;;;1.30;1.20;;;0.70;99.90;;;;;;4973028;28;20227;-71
2020/12/31 00:15:49;;;;;;;1.17;1.08;;;0.60;99.90;;;;;;4975362;28;20199;-71
2020/12/31 00:18:15;;;;;;;1.17;1.08;;;0.70;99.90;;;;;;4974699;28;20203;-71
2020/12/31 00:20:41;;;;;;;1.42;1.10;;;0.70;99.90;;;;;;4973006;28;20195;-72
2020/12/31 00:23:07;;;;;;;1.98;1.08;;;0.60;99.90;;;;;;4975623;28;20184;-73
2020/12/31 00:25:45;;;;;;;1.23;1.13;;;0.60;99.90;;;;;;4973701;28;20215;-72
2020/12/31 00:28:10;;;;;;;1.52;1.38;;;0.70;99.90;;;;;;4977158;28;20195;-74
2020/12/31 00:30:36;;;;;;;1.40;1.23;;;0.60;99.90;;;;;;4978672;28;20571;-73
2020/12/31 00:33:02;;;;;;;1.48;1.25;;;0.60;99.90;;;;;;4974150;28;20287;-73
2020/12/31 00:35:28;;;;;;;1.52;1.40;;;0.70;99.90;;;;;;4979168;28;20317;-72
2020/12/31 00:37:54;;;;;;;1.65;1.20;;;0.70;99.90;;;;;;4972584;28;20270;-73
2020/12/31 00:40:20;;;;;;;1.38;1.27;;;0.70;99.90;;;;;;4973777;28;20192;-72
2020/12/31 00:42:46;;;;;;;1.67;1.40;;;0.60;99.90;;;;;;4980320;28;20200;-73
2020/12/31 00:45:12;;;;;;;1.30;1.20;;;0.60;99.90;;;;;;4981178;28;20769;-72
2020/12/31 00:47:38;;;;;;;1.33;1.23;;;0.60;99.90;;;;;;4972935;28;20207;-72
2020/12/31 00:50:04;;;;;;;1.55;1.30;;;0.60;99.90;;;;;;4978183;28;21017;-72
2020/12/31 00:52:29;;;;;;;1.58;1.27;;;0.60;99.90;;;;;;4970982;28;20214;-71
2020/12/31 00:54:55;;;;;;;1.67;1.33;;;0.60;99.90;;;;;;4973294;28;20274;-72
2020/12/31 00:57:21;;;;;;;1.33;1.23;;;0.60;99.90;;;;;;4975867;28;20301;-72
2020/12/31 00:59:46;;;;;;;1.95;1.23;;;0.60;99.90;;;;;;4975034;28;20201;-71
2020/12/31 01:02:12;;;;;;;1.35;1.25;;;0.60;99.90;;;;;;4975364;28;20597;-72
2020/12/31 01:04:38;;;;;;;1.35;1.20;;;0.60;99.90;;;;;;4975307;28;20281;-71
2020/12/31 01:07:03;;;;;;;1.20;1.10;;;0.60;99.90;;;;;;4975116;28;20200;-70
2020/12/31 01:09:29;;;;;;;1.90;1.40;;;0.70;99.90;;;;;;4978641;28;20207;-70
2020/12/31 01:11:56;;;;;;;4.78;1.20;;;0.60;99.90;;;;;;4974475;28;20211;-70
2020/12/31 01:14:22;;;;;;;1.40;1.30;;;0.60;99.90;;;;;;4971605;28;20215;-71
2020/12/31 01:16:49;;;;;;;1.70;1.27;;;0.60;99.90;;;;;;4975094;28;20203;-70
2020/12/31 01:19:15;;;;;;;2.13;1.42;;;0.60;99.90;;;;;;4975574;28;20207;-71
2020/12/31 01:21:45;;;;;;;1.23;1.13;;;0.60;99.90;;;;;;4976465;28;20196;-71
2020/12/31 01:24:12;;;;;;;2.38;1.40;;;0.60;99.90;;;;;;4972833;28;20253;-71
2020/12/31 01:26:37;;;;;;;1.85;1.30;;;0.60;99.90;;;;;;4973804;28;20539;-70
2020/12/31 01:29:04;;;;;;;4.43;1.40;;;0.60;99.90;;;;;;4972424;28;20200;-71
2020/12/31 01:31:30;;;;;;;1.40;1.30;;;0.60;99.90;;;;;;4980752;28;20208;-71
2020/12/31 01:33:56;;;;;;;2.10;1.30;;;0.60;99.90;;;;;;4972460;28;20250;-70
2020/12/31 01:36:22;;;;;;;1.40;1.23;;;0.60;99.90;;;;;;4975885;28;20285;-70
2020/12/31 01:38:48;;;;;;;1.95;1.50;;;0.60;99.90;;;;;;4973316;28;20203;-70
2020/12/31 01:41:14;;;;;;;1.60;1.30;;;0.70;99.90;;;;;;4974228;28;20219;-69
2020/12/31 01:43:41;;;;;;;2.30;1.80;;;0.60;99.90;;;;;;4993190;28;20234;-71
2020/12/31 01:46:11;;;;;;;1.90;1.40;;;0.70;99.90;;;;;;4980103;28;20196;-71
2020/12/31 01:48:39;;;;;;;2.47;1.48;;;0.70;99.90;;;;;;4975123;28;20200;-71
2020/12/31 01:51:05;;;;;;;3.47;1.77;;;0.70;99.90;;;;;;4979807;28;20207;-70
2020/12/31 01:53:31;;;;;;;2.35;1.60;;;0.70;99.90;;;;;;4976243;28;20215;-70
2020/12/31 01:56:00;;;;;;;5.00;1.55;;;0.80;99.90;;;;;;4980895;28;20841;-70
2020/12/31 01:58:26;;;;;;;2.63;1.77;;;0.70;99.90;;;;;;4978641;28;20199;-71
2020/12/31 02:00:51;;;;;;;3.00;1.73;;;0.70;99.90;;;;;;4977106;28;20741;-72
2020/12/31 02:03:17;;;;;;;2.20;1.50;;;0.70;99.90;;;;;;4966132;28;20582;-71
2020/12/31 02:05:44;;;;;;;2.53;1.80;;;0.70;99.90;;;;;;4978031;28;20202;-70
2020/12/31 02:08:11;;;;;;;3.35;1.90;;;0.70;99.90;;;;;;4978847;28;20273;-70
2020/12/31 02:10:36;;;;;;;2.05;1.55;;;0.70;99.90;;;;;;4973527;28;20196;-70
2020/12/31 02:13:02;;;;;;;2.47;1.80;;;0.70;99.90;;;;;;4979562;28;21039;-71
2020/12/31 02:15:28;;;;;;;3.30;1.83;;;0.70;99.90;;;;;;4976422;28;20222;-70
2020/12/31 02:17:54;;;;;;;5.45;2.60;;;0.70;99.90;;;;;;4976331;28;20188;-70
2020/12/31 02:20:20;;;;;;;5.22;2.45;;;0.70;99.90;;;;;;4974457;28;20210;-70
2020/12/31 02:22:45;;;;;;;4.18;2.30;;;0.70;99.90;;;;;;4970576;28;20223;-71
2020/12/31 02:25:11;;;;;;;6.53;3.17;;;0.70;99.90;;;;;;4972933;28;20207;-71
2020/12/31 02:27:36;;;;;;;4.50;2.53;;;0.70;99.90;;;;;;4977380;28;20204;-71
2020/12/31 02:30:03;;;;;;;5.22;2.70;;;0.60;99.90;;;;;;4974855;28;20199;-72
2020/12/31 02:32:29;;;;;;;6.35;2.97;;;0.70;99.90;;;;;;4975680;28;20212;-71
2020/12/31 02:34:55;;;;;;;6.72;3.05;;;0.70;99.90;;;;;;4978348;28;20214;-72
2020/12/31 02:37:20;;;;;;;21.40;3.30;;;0.70;99.90;;;;;;4976440;28;20733;-73
2020/12/31 02:39:46;;;;;;;9.70;3.45;;;0.70;99.90;;;;;;4977332;28;20214;-71
2020/12/31 02:42:12;;;;;;;10.35;4.00;;;0.70;99.90;;;;;;4974928;28;20258;-72
2020/12/31 02:44:37;;;;;;;13.55;3.83;;;0.70;99.90;;;;;;4976657;28;20199;-71
2020/12/31 02:47:03;;;;;;;9.80;3.72;;;0.80;99.90;;;;;;4975642;28;20203;-72
2020/12/31 02:49:29;;;;;;;17.90;3.88;;;0.80;99.90;;;;;;4973256;28;20721;-71
2020/12/31 02:51:54;;;;;;;12.63;3.97;;;0.80;99.90;;;;;;4975912;28;20206;-71
2020/12/31 02:54:20;;;;;;;13.07;4.35;;;0.80;99.90;;;;;;4973860;28;20225;-71
2020/12/31 02:56:45;;;;;;;14.98;4.63;;;0.80;99.90;;;;;;4977060;28;20835;-73
2020/12/31 02:59:11;;;;;;;16.30;4.57;;;0.80;99.90;;;;;;4972844;28;20824;-71
2020/12/31 03:01:37;;;;;;;16.02;4.72;;;0.80;99.90;;;;;;4971664;28;21935;-71
2020/12/31 03:04:03;;;;;;;40.85;5.70;;;0.70;99.90;;;;;;4974755;28;20686;-71
2020/12/31 03:06:28;;;;;;;17.65;4.93;;;0.70;99.90;;;;;;4977393;28;20215;-72
2020/12/31 03:08:54;;;;;;;47.13;7.18;;;0.70;99.90;;;;;;4973189;28;20238;-71
2020/12/31 03:11:22;;;;;;;47.03;6.18;;;0.70;99.90;;;;;;4976983;28;20207;-71
2020/12/31 03:13:49;;;;;;;47.30;6.25;;;0.70;99.90;;;;;;4974772;28;20298;-71
2020/12/31 03:16:15;;;;;;;24.10;5.57;;;0.60;99.90;;;;;;4976193;28;20258;-70
2020/12/31 03:18:41;;;;;;;28.45;6.68;;;0.70;99.90;;;;;;4976664;28;20250;-71
2020/12/31 03:21:06;;;;;;;25.27;7.38;;;0.70;99.90;;;;;;4973288;28;20207;-72
2020/12/31 03:23:32;;;;;;;20.90;6.57;;;0.80;99.90;;;;;;4976027;28;20309;-73
2020/12/31 03:25:59;;;;;;;24.15;6.80;;;0.80;99.90;;;;;;4972533;28;20192;-71
2020/12/31 03:28:25;;;;;;;18.02;6.32;;;0.80;99.90;;;;;;4975784;28;20209;-71
2020/12/31 03:30:50;;;;;;;18.92;6.85;;;0.80;99.90;;;;;;4971579;28;20207;-71
2020/12/31 03:33:16;;;;;;;18.40;6.93;;;0.80;99.90;;;;;;4976407;28;20207;-72
2020/12/31 03:35:48;;;;;;;24.20;6.40;;;0.80;99.90;;;;;;4975394;28;20235;-71
2020/12/31 03:38:16;;;;;;;28.17;6.45;;;0.70;99.90;;;;;;4975655;28;20722;-72
2020/12/31 03:40:42;;;;;;;20.60;6.35;;;0.80;99.90;;;;;;4975957;28;20207;-70
2020/12/31 03:43:08;;;;;;;16.70;5.82;;;0.70;99.90;;;;;;4978918;28;20200;-72
2020/12/31 03:45:34;;;;;;;22.65;5.85;;;0.70;99.90;;;;;;4974905;28;20333;-71
2020/12/31 03:48:00;;;;;;;18.33;5.82;;;0.70;99.90;;;;;;4976886;28;20200;-71
2020/12/31 03:50:26;;;;;;;30.73;6.07;;;0.80;99.90;;;;;;4974134;28;20215;-71
2020/12/31 03:52:52;;;;;;;20.67;6.45;;;0.80;99.90;;;;;;4970679;28;20206;-71
2020/12/31 03:55:18;;;;;;;16.52;6.43;;;0.80;99.90;;;;;;4973207;28;20239;-72
2020/12/31 03:57:44;;;;;;;27.67;7.05;;;0.70;99.90;;;;;;4973949;28;20254;-70
2020/12/31 04:00:10;;;;;;;20.85;6.43;;;0.80;99.90;;;;;;4971633;28;20242;-70
2020/12/31 04:02:36;;;;;;;24.45;6.65;;;0.70;99.90;;;;;;4977955;28;20231;-71
2020/12/31 04:05:02;;;;;;;20.52;7.43;;;0.80;99.90;;;;;;4976656;28;20210;-72
2020/12/31 04:07:28;;;;;;;18.25;5.90;;;0.70;99.90;;;;;;4974152;28;20237;-71
2020/12/31 04:09:54;;;;;;;15.35;6.65;;;0.70;99.90;;;;;;4976305;28;20235;-70
2020/12/31 04:12:19;;;;;;;25.02;7.22;;;0.80;99.90;;;;;;4974187;28;20206;-71
2020/12/31 04:14:45;;;;;;;15.30;6.32;;;0.70;99.90;;;;;;4988022;28;20297;-72
2020/12/31 04:17:11;;;;;;;20.45;7.97;;;0.80;99.90;;;;;;4974615;28;20203;-72
2020/12/31 04:19:41;;;;;;;15.52;6.82;;;0.70;99.90;;;;;;4972962;28;20192;-70
2020/12/31 04:22:08;;;;;;;15.63;6.68;;;0.70;99.90;;;;;;4972388;28;20686;-71
2020/12/31 04:24:34;;;;;;;19.70;7.57;;;0.70;99.90;;;;;;4991336;28;20204;-71
2020/12/31 04:27:00;;;;;;;18.42;6.10;;;0.70;99.90;;;;;;4976077;28;20246;-71
2020/12/31 04:29:25;;;;;;;18.15;5.93;;;0.80;99.90;;;;;;4991454;28;20203;-71
2020/12/31 04:31:51;;;;;;;14.90;6.50;;;0.80;99.90;;;;;;4981134;28;20363;-71
2020/12/31 04:34:17;;;;;;;14.68;6.85;;;0.80;99.90;;;;;;4979149;28;20235;-71
2020/12/31 04:36:42;;;;;;;15.68;6.60;;;0.80;99.90;;;;;;4975854;28;20199;-72
2020/12/31 04:39:08;;;;;;;22.67;8.57;;;0.80;99.90;;;;;;4978107;28;20286;-71
2020/12/31 04:41:34;;;;;;;15.00;6.28;;;0.80;99.90;;;;;;4975920;28;20274;-72
2020/12/31 04:44:02;;;;;;;16.45;6.88;;;0.80;99.90;;;;;;4979302;28;20211;-70
2020/12/31 04:46:30;;;;;;;18.10;6.85;;;0.90;99.90;;;;;;4979297;28;20203;-72
2020/12/31 04:49:00;;;;;;;25.45;7.38;;;0.90;99.90;;;;;;4980998;28;20220;-71
2020/12/31 04:51:26;;;;;;;26.70;7.85;;;0.80;99.90;;;;;;4978725;28;20753;-70
2020/12/31 04:53:54;;;;;;;21.02;6.90;;;0.90;99.90;;;;;;4978415;28;20298;-72
2020/12/31 04:56:25;;;;;;;28.13;8.15;;;0.90;99.90;;;;;;4979227;28;20203;-71
2020/12/31 04:58:51;;;;;;;22.35;7.57;;;0.80;99.90;;;;;;4977272;28;20226;-73
2020/12/31 05:01:17;;;;;;;19.95;7.78;;;0.80;99.90;;;;;;4977076;28;20232;-71
2020/12/31 05:03:42;;;;;;;30.98;8.85;;;0.80;99.90;;;;;;4978638;28;20231;-71
2020/12/31 05:06:12;;;;;;;22.83;7.43;;;0.80;99.90;;;;;;4977192;28;20204;-71
2020/12/31 05:08:38;;;;;;;27.48;9.38;;;0.90;99.90;;;;;;4974887;28;20266;-71
2020/12/31 05:11:04;;;;;;;25.73;7.55;;;0.80;99.90;;;;;;4977978;28;20196;-71
2020/12/31 05:13:29;;;;;;;21.65;7.65;;;0.90;99.90;;;;;;4978199;28;20226;-71
2020/12/31 05:15:55;;;;;;;29.17;7.93;;;0.90;99.90;;;;;;4994491;28;20229;-71
2020/12/31 05:18:29;;;;;;;18.23;7.18;;;0.80;99.90;;;;;;4978102;28;20254;-71
2020/12/31 05:20:57;;;;;;;22.50;7.32;;;0.80;99.90;;;;;;4975875;28;20227;-73
2020/12/31 05:23:25;;;;;;;18.98;6.82;;;0.90;99.90;;;;;;4976598;28;20200;-73
2020/12/31 05:25:52;;;;;;;23.40;7.20;;;0.90;99.90;;;;;;4975408;28;20200;-72
2020/12/31 05:28:24;;;;;;;21.33;7.28;;;1.00;99.90;;;;;;4975331;28;20196;-72
2020/12/31 05:30:51;;;;;;;17.30;6.45;;;0.90;99.90;;;;;;4977109;28;20202;-71
2020/12/31 05:33:31;;;;;;;18.10;7.30;;;0.90;99.90;;;;;;4979292;28;20286;-73
2020/12/31 05:36:18;;;;;;;16.13;7.28;;;0.90;99.90;;;;;;4978114;28;20196;-72
2020/12/31 05:39:02;;;;;;;15.32;6.72;;;0.90;99.90;;;;;;4992322;28;20235;-70
2020/12/31 05:41:35;;;;;;;24.30;6.28;;;0.90;99.90;;;;;;4979892;28;20231;-72
2020/12/31 05:44:05;;;;;;;15.98;6.30;;;0.90;99.90;;;;;;4975095;28;20191;-71
2020/12/31 05:46:31;;;;;;;17.95;6.30;;;0.90;99.90;;;;;;4977433;28;20670;-72
2020/12/31 05:49:02;;;;;;;11.48;5.57;;;0.90;99.90;;;;;;4977729;28;20204;-72
2020/12/31 05:51:35;;;;;;;11.77;5.32;;;0.90;99.90;;;;;;4968934;28;20207;-72
2020/12/31 05:54:08;;;;;;;13.40;6.03;;;1.00;99.90;;;;;;4975395;28;20214;-71
2020/12/31 05:56:36;;;;;;;15.40;5.15;;;1.10;99.90;;;;;;4981458;28;20212;-70
2020/12/31 05:59:19;;;;;;;9.38;4.40;;;1.10;99.90;;;;;;4976198;28;20192;-72
2020/12/31 06:01:53;;;;;;;12.02;5.47;;;1.10;99.90;;;;;;4976521;28;20611;-73
2020/12/31 06:04:20;;;;;;;12.55;5.45;;;1.00;99.90;;;;;;4979579;28;20767;-70
2020/12/31 06:06:52;;;;;;;11.73;5.18;;;1.10;99.90;;;;;;4978984;28;20239;-71
2020/12/31 06:09:28;;;;;;;15.43;5.05;;;1.00;99.90;;;;;;4976454;28;20595;-72
2020/12/31 06:11:59;;;;;;;10.80;4.47;;;1.00;99.90;;;;;;4975593;28;20199;-71
2020/12/31 06:14:31;;;;;;;11.77;4.85;;;1.00;99.90;;;;;;4976603;28;20255;-71
2020/12/31 06:17:05;;;;;;;12.38;5.43;;;1.10;99.90;;;;;;4976159;28;20541;-71
2020/12/31 06:19:39;;;;;;;9.73;4.97;;;1.00;99.90;;;;;;4974693;28;20258;-71
2020/12/31 06:22:09;;;;;;;13.35;5.75;;;1.00;99.90;;;;;;4973484;28;20203;-71
2020/12/31 06:24:47;;;;;;;11.25;5.28;;;1.10;99.90;;;;;;4975557;28;20207;-71
2020/12/31 06:27:17;;;;;;;10.57;5.10;;;1.10;99.90;;;;;;4972389;28;20203;-72
2020/12/31 06:29:43;;;;;;;8.27;4.80;;;1.10;99.90;;;;;;4976292;28;20950;-73
2020/12/31 06:32:27;;;;;;;12.75;4.95;;;1.10;99.90;;;;;;4973120;28;20192;-72
2020/12/31 06:35:17;;;;;;;10.23;4.82;;;1.00;99.90;;;;;;4973571;28;20286;-73
2020/12/31 06:37:56;;;;;;;11.35;5.07;;;1.00;99.90;;;;;;4990313;28;20232;-74
2020/12/31 06:40:30;;;;;;;11.02;5.07;;;1.00;99.90;;;;;;4975867;28;20285;-72
2020/12/31 06:43:09;;;;;;;10.95;5.05;;;1.00;99.90;;;;;;4973245;28;20232;-71
2020/12/31 06:45:37;;;;;;;11.90;5.30;;;1.10;99.90;;;;;;4969357;28;20207;-71
2020/12/31 06:48:23;;;;;;;11.10;4.85;;;1.00;99.90;;;;;;4976389;28;20200;-72
2020/12/31 06:51:12;;;;;;;10.23;4.55;;;1.10;99.90;;;;;;4971769;28;20230;-71
2020/12/31 06:53:46;;;;;;;9.60;4.55;;;1.10;99.90;;;;;;4975295;28;20204;-72
2020/12/31 06:56:13;;;;;;;11.38;4.38;;;1.00;99.90;;;;;;4973859;28;20296;-72
2020/12/31 06:58:44;;;;;;;7.38;4.20;;;1.00;99.90;;;;;;4976486;28;20206;-72
2020/12/31 07:01:26;;;;;;;7.90;4.35;;;1.10;99.90;;;;;;4978484;28;20230;-72
2020/12/31 07:03:53;;;;;;;7.97;4.03;;;1.10;99.90;;;;;;4974198;28;20363;-73
2020/12/31 07:06:22;;;;;;;7.55;4.45;;;1.10;99.90;;;;;;4974690;28;20609;-73
2020/12/31 07:08:52;;;;;;;24.05;13.48;;;1.10;99.90;;;;;;4980146;28;20277;-72
2020/12/31 07:11:37;;;;;;;15.35;8.85;;;1.10;99.90;;;;;;4973422;28;20269;-72
2020/12/31 07:14:24;;;;;;;20.35;9.93;;;1.20;99.90;;;;;;4970752;28;20250;-74
2020/12/31 07:17:11;;;;;;;12.27;6.65;;;1.20;99.90;;;;;;4975603;28;20195;-72
2020/12/31 07:19:40;;;;;;;21.45;12.15;;;1.20;99.90;;;;;;4974651;28;20200;-71
2020/12/31 07:22:18;;;;;;;25.58;11.70;;;1.20;99.90;;;;;;4973154;28;20192;-72
2020/12/31 07:24:47;;;;;;;34.65;17.63;;;1.20;99.90;;;;;;4977202;28;20212;-72
2020/12/31 07:27:29;;;;;;;34.78;18.98;;;1.20;99.90;;;;;;4976662;28;20644;-72
2020/12/31 07:30:08;;;;;;;9.57;6.05;;;1.20;99.90;;;;;;4971918;28;20203;-72
2020/12/31 07:32:53;;;;;;;120.75;60.50;;;1.20;99.90;;;;;;4975979;28;20696;-73
2020/12/31 07:35:22;;;;;;;19.20;11.10;;;1.20;99.90;;;;;;4970595;28;20295;-72
2020/12/31 07:37:53;;;;;;;18.25;10.88;;;1.20;99.90;;;;;;4971774;28;20993;-72
2020/12/31 07:40:36;;;;;;;10.00;6.03;;;1.20;99.90;;;;;;4966284;28;20204;-72
2020/12/31 07:43:04;;;;;;;10.55;5.70;;;1.20;99.90;;;;;;4971733;28;20195;-73
2020/12/31 07:45:31;;;;;;;61.00;36.60;;;1.20;99.90;;;;;;4971394;28;20207;-73
2020/12/31 07:47:58;;;;;;;13.75;8.55;;;1.20;99.90;;;;;;4983802;28;20684;-72
2020/12/31 07:50:25;;;;;;;30.33;17.83;;;1.10;99.90;;;;;;4970202;28;20713;-73
2020/12/31 07:52:51;;;;;;;17.15;10.25;;;1.20;99.90;;;;;;4967384;28;20211;-71
2020/12/31 07:55:18;;;;;;;33.67;16.52;;;1.20;99.90;;;;;;4967618;28;20218;-72
2020/12/31 07:57:43;;;;;;;511.05;158.30;;;1.20;99.90;;;;;;4966328;28;20314;-74
2020/12/31 08:00:20;;;;;;;68.63;27.77;;;1.10;99.90;;;;;;4968308;28;20264;-73
2020/12/31 08:02:51;;;;;;;25.77;15.00;;;1.10;99.90;;;;;;4970902;28;20281;-73
2020/12/31 08:05:24;;;;;;;20.15;12.00;;;1.10;99.90;;;;;;4972577;28;20526;-75
2020/12/31 08:07:55;;;;;;;64.07;40.33;;;1.10;99.90;;;;;;4972149;28;20286;-74
2020/12/31 08:10:21;;;;;;;40.38;23.73;;;1.00;99.90;;;;;;4970630;28;20205;-72
2020/12/31 08:12:54;;;;;;;56.83;33.00;;;1.00;99.90;;;;;;4974579;28;20191;-75
2020/12/31 08:15:21;;;;;;;36.25;19.50;;;1.00;99.90;;;;;;4973342;28;20263;-74
2020/12/31 08:17:55;;;;;;;14.07;7.32;;;1.00;99.90;;;;;;4971255;28;20282;-74
2020/12/31 08:20:23;;;;;;;17.77;10.40;;;1.00;99.90;;;;;;4969584;28;20228;-73
2020/12/31 08:22:54;;;;;;;18.38;10.80;;;1.00;99.90;;;;;;4975557;28;20250;-74
2020/12/31 08:25:26;;;;;;;10.30;5.30;;;1.00;99.90;;;;;;4968879;28;20208;-73
2020/12/31 08:27:55;;;;;;;37.92;24.38;;;1.00;99.90;;;;;;4969928;28;20275;-73
2020/12/31 08:30:22;;;;;;;9.40;6.25;;;1.00;99.90;;;;;;4968496;28;20270;-74
2020/12/31 08:32:50;;;;;;;11.10;6.38;;;1.10;99.90;;;;;;4971466;28;20211;-75
2020/12/31 08:35:21;;;;;;;13.25;7.18;;;1.10;99.90;;;;;;4983207;28;20222;-75
2020/12/31 08:37:58;;;;;;;10.00;5.47;;;1.10;99.90;;;;;;4969948;28;20208;-75
2020/12/31 08:40:23;;;;;;;17.65;8.52;;;1.10;99.90;;;;;;4972980;28;20222;-71
2020/12/31 08:42:54;;;;;;;14.32;7.05;;;1.10;99.90;;;;;;4973663;28;20323;-75
2020/12/31 08:45:28;;;;;;;8.27;4.88;;;1.00;99.90;;;;;;4987113;28;20206;-75
2020/12/31 08:48:16;;;;;;;14.00;5.65;;;1.10;99.90;;;;;;4971788;28;20206;-74
2020/12/31 08:50:42;;;;;;;14.70;8.23;;;1.00;99.90;;;;;;4989859;28;21014;-74
2020/12/31 08:53:10;;;;;;;17.73;8.15;;;1.10;99.90;;;;;;4974605;28;20206;-73
2020/12/31 08:55:37;;;;;;;30.73;15.15;;;1.10;99.90;;;;;;4970622;28;20212;-74
2020/12/31 08:58:11;;;;;;;31.48;17.77;;;2.00;99.90;;;;;;4972287;28;20191;-75
2020/12/31 09:00:37;;;;;;;23.98;11.98;;;2.20;99.90;;;;;;4977417;28;20205;-74
2020/12/31 09:03:03;;;;;;;18.58;8.75;;;2.00;99.90;;;;;;4974395;28;20231;-74
2020/12/31 09:05:29;;;;;;;38.50;21.00;;;1.80;99.90;;;;;;4972255;28;20212;-75
2020/12/31 09:08:02;;;;;;;23.00;11.05;;;1.70;99.90;;;;;;4976329;28;20673;-75
2020/12/31 09:10:32;;;;;;;26.55;13.77;;;1.60;99.90;;;;;;4972593;28;20204;-76
2020/12/31 09:12:58;;;;;;;48.33;22.42;;;1.50;99.90;;;;;;4972078;28;20207;-76
2020/12/31 09:15:24;;;;;;;17.88;9.38;;;1.40;99.90;;;;;;4976772;28;20207;-73
2020/12/31 09:17:50;;;;;;;30.45;17.88;;;1.40;99.90;;;;;;4974161;28;20854;-72
2020/12/31 09:20:21;;;;;;;20.48;10.40;;;1.40;99.90;;;;;;4968492;28;20210;-73
2020/12/31 09:22:47;;;;;;;16.52;7.82;;;1.40;99.90;;;;;;4977499;28;20206;-74
2020/12/31 09:25:14;;;;;;;11.85;5.97;;;1.40;99.90;;;;;;4974215;28;20203;-74
2020/12/31 09:27:41;;;;;;;16.13;7.57;;;2.50;99.90;;;;;;4974794;28;20215;-72
2020/12/31 09:30:09;;;;;;;19.88;8.98;;;2.70;99.90;;;;;;4970972;28;20245;-70
2020/12/31 09:32:36;;;;;;;13.75;7.75;;;2.70;99.90;;;;;;4975532;28;20200;-72
2020/12/31 09:35:04;;;;;;;15.73;7.72;;;2.70;99.90;;;;;;4975927;28;20222;-73
2020/12/31 09:37:30;;;;;;;17.92;8.70;;;2.60;99.90;;;;;;4971865;28;20775;-70
2020/12/31 09:39:56;;;;;;;17.98;8.77;;;2.40;99.90;;;;;;4974054;28;20202;-71
2020/12/31 09:42:22;;;;;;;21.83;9.48;;;2.20;99.90;;;;;;4976135;28;20548;-72
2020/12/31 09:44:48;;;;;;;22.27;10.40;;;2.10;99.90;;;;;;4972087;28;20250;-71
2020/12/31 09:47:13;;;;;;;19.73;10.07;;;1.90;99.90;;;;;;4974596;28;20215;-70
2020/12/31 09:49:39;;;;;;;16.65;8.20;;;1.90;99.90;;;;;;4975266;28;20196;-72
2020/12/31 09:52:05;;;;;;;23.65;11.20;;;1.70;99.90;;;;;;4971781;28;20254;-71
2020/12/31 09:54:30;;;;;;;20.50;8.45;;;1.70;99.90;;;;;;4974045;28;20262;-71
2020/12/31 09:56:56;;;;;;;19.17;8.45;;;1.70;99.90;;;;;;4975744;28;20230;-72
2020/12/31 09:59:22;;;;;;;24.38;9.20;;;1.70;99.90;;;;;;4967057;28;20234;-72
2020/12/31 10:01:47;;;;;;;29.02;12.95;;;1.60;99.90;;;;;;4974420;28;20542;-71
2020/12/31 10:04:13;;;;;;;20.33;9.77;;;1.60;99.90;;;;;;4969704;28;20608;-73
2020/12/31 10:06:46;;;;;;;23.33;11.18;;;1.60;99.90;;;;;;4969108;28;20214;-71
2020/12/31 10:09:14;;;;;;;19.23;8.55;;;1.60;99.90;;;;;;4977345;28;20976;-71
2020/12/31 10:11:48;;;;;;;19.42;10.07;;;1.50;99.90;;;;;;4968826;28;20200;-71
2020/12/31 10:14:14;;;;;;;15.50;8.30;;;1.50;99.90;;;;;;4970650;28;20219;-73
2020/12/31 10:16:40;;;;;;;15.80;8.85;;;1.60;99.90;;;;;;4968607;28;20259;-73
2020/12/31 10:19:06;;;;;;;20.38;9.30;;;1.60;99.90;;;;;;4967492;28;20196;-73
2020/12/31 10:21:32;;;;;;;21.98;9.32;;;1.60;99.90;;;;;;4974186;28;20204;-73
2020/12/31 10:23:58;;;;;;;24.63;10.75;;;1.60;99.90;;;;;;4967915;28;20197;-72
2020/12/31 10:26:23;;;;;;;41.53;14.43;;;1.50;99.90;;;;;;4972511;28;20208;-73
2020/12/31 10:28:49;;;;;;;46.00;16.40;;;1.50;99.90;;;;;;4964864;28;20204;-72
2020/12/31 10:31:15;;;;;;;22.42;11.23;;;1.50;99.90;;;;;;4970681;28;20195;-73
2020/12/31 10:33:40;;;;;;;65.68;28.67;;;1.60;99.90;;;;;;4967512;28;20541;-73
2020/12/31 10:36:08;;;;;;;36.90;18.17;;;1.60;99.90;;;;;;4974793;28;20202;-73
2020/12/31 10:38:38;;;;;;;60.08;32.42;;;1.60;99.90;;;;;;4972830;28;20212;-73
2020/12/31 10:41:05;;;;;;;37.05;20.30;;;1.60;99.90;;;;;;4970389;28;20202;-72
2020/12/31 10:43:31;;;;;;;30.27;15.57;;;1.60;99.90;;;;;;4972422;28;20332;-72
2020/12/31 10:45:57;;;;;;;32.03;16.10;;;1.60;99.90;;;;;;4974745;28;20702;-72
2020/12/31 10:48:22;;;;;;;26.90;13.40;;;1.60;99.90;;;;;;4972306;28;20265;-73
2020/12/31 10:50:48;;;;;;;25.90;12.23;;;1.70;99.90;;;;;;4964866;28;21066;-72
2020/12/31 10:53:14;;;;;;;30.10;17.13;;;1.70;99.90;;;;;;4973557;28;20945;-71
2020/12/31 10:55:39;;;;;;;26.77;14.73;;;1.70;99.90;;;;;;4971326;28;20220;-72
2020/12/31 10:58:05;;;;;;;24.83;13.18;;;1.70;99.90;;;;;;4971457;28;20199;-71
2020/12/31 11:00:31;;;;;;;22.00;10.10;;;1.70;99.90;;;;;;4969419;28;20200;-70
2020/12/31 11:02:56;;;;;;;23.15;12.00;;;1.70;99.90;;;;;;4967621;28;20284;-72
2020/12/31 11:05:22;;;;;;;26.83;12.45;;;1.80;99.90;;;;;;4971543;28;20816;-72
2020/12/31 11:07:48;;;;;;;30.38;15.02;;;1.70;99.90;;;;;;4970909;28;20550;-72
2020/12/31 11:10:13;;;;;;;37.50;16.63;;;1.80;99.90;;;;;;4971954;28;21359;-72
2020/12/31 11:12:39;;;;;;;62.88;24.70;;;1.80;99.90;;;;;;4974044;28;20868;-71
2020/12/31 11:15:05;;;;;;;28.35;13.25;;;1.80;99.90;;;;;;4974583;28;20297;-72
2020/12/31 11:17:30;;;;;;;26.98;12.82;;;1.80;99.90;;;;;;4969819;28;20201;-71
2020/12/31 11:19:56;;;;;;;43.72;20.90;;;1.80;99.90;;;;;;4970257;28;20286;-73
2020/12/31 11:22:22;;;;;;;42.58;22.63;;;1.80;99.90;;;;;;4971967;28;20199;-74
2020/12/31 11:24:48;;;;;;;46.85;20.30;;;1.80;99.90;;;;;;4971179;28;20191;-71
2020/12/31 11:27:14;;;;;;;35.72;16.63;;;1.80;99.90;;;;;;4971162;28;20211;-73
2020/12/31 11:29:40;;;;;;;28.08;12.40;;;1.90;99.90;;;;;;4969904;28;20203;-71
2020/12/31 11:32:05;;;;;;;27.45;12.25;;;1.80;99.90;;;;;;4970238;28;20295;-73
2020/12/31 11:34:31;;;;;;;29.67;12.88;;;1.80;99.90;;;;;;4972704;28;20965;-72
2020/12/31 11:36:57;;;;;;;28.90;11.98;;;1.80;99.90;;;;;;4969563;28;20200;-72
2020/12/31 11:39:23;;;;;;;27.35;12.43;;;1.80;99.90;;;;;;4976567;28;20206;-72
2020/12/31 11:41:54;;;;;;;21.42;10.57;;;1.90;99.90;;;;;;4975577;28;20195;-72
2020/12/31 11:44:20;;;;;;;20.05;10.10;;;1.80;99.90;;;;;;4969215;28;20204;-72
2020/12/31 11:46:48;;;;;;;20.10;9.57;;;1.80;99.90;;;;;;4971874;28;20218;-71
2020/12/31 11:49:14;;;;;;;17.55;8.18;;;1.80;99.90;;;;;;4974163;28;20207;-71
2020/12/31 11:51:39;;;;;;;18.45;9.55;;;1.80;99.90;;;;;;4975525;28;20199;-72
2020/12/31 11:54:05;;;;;;;23.80;11.27;;;1.80;99.90;;;;;;4973657;28;20677;-71
2020/12/31 11:56:30;;;;;;;14.98;7.80;;;1.80;99.90;;;;;;4975341;28;20733;-71
2020/12/31 11:58:56;;;;;;;18.13;9.00;;;1.80;99.90;;;;;;4977085;28;20560;-72
2020/12/31 12:01:22;;;;;;;24.67;11.35;;;1.90;99.90;;;;;;4971878;28;20274;-73
2020/12/31 12:03:48;;;;;;;29.05;12.30;;;1.90;99.90;;;;;;4972165;28;20565;-72
2020/12/31 12:06:13;;;;;;;25.67;11.80;;;1.80;99.90;;;;;;4976135;28;20200;-73
2020/12/31 12:08:41;;;;;;;17.52;7.95;;;1.80;99.90;;;;;;4980330;28;20198;-70
2020/12/31 12:11:06;;;;;;;14.30;7.70;;;1.80;99.90;;;;;;4979783;28;20198;-72
2020/12/31 12:13:32;;;;;;;18.48;7.78;;;1.90;99.90;;;;;;4976135;28;20199;-70
2020/12/31 12:15:58;;;;;;;21.98;10.77;;;1.90;99.90;;;;;;4977191;28;20210;-72
2020/12/31 12:18:24;;;;;;;26.75;11.73;;;1.90;99.90;;;;;;4977010;28;20238;-72
2020/12/31 12:20:51;;;;;;;21.67;10.48;;;1.90;99.90;;;;;;4976803;28;20659;-70
2020/12/31 12:23:17;;;;;;;19.95;10.07;;;1.90;99.90;;;;;;4976064;28;20274;-71
2020/12/31 12:25:43;;;;;;;19.33;7.93;;;2.00;99.90;;;;;;4977845;28;20213;-71
2020/12/31 12:28:09;;;;;;;22.13;9.05;;;1.90;99.90;;;;;;4978156;28;20199;-72
2020/12/31 12:30:35;;;;;;;16.08;7.82;;;1.90;99.90;;;;;;4997793;28;20203;-70
2020/12/31 12:33:01;;;;;;;19.48;9.00;;;1.90;99.90;;;;;;4975112;28;21069;-71
2020/12/31 12:35:26;;;;;;;17.92;8.50;;;1.90;99.90;;;;;;4975612;28;20223;-69
2020/12/31 12:37:52;;;;;;;22.45;9.63;;;2.00;99.90;;;;;;4975989;28;20538;-71
2020/12/31 12:40:18;;;;;;;21.55;9.18;;;2.00;99.90;;;;;;4971390;28;20628;-70
2020/12/31 12:42:44;;;;;;;24.35;8.77;;;1.90;99.90;;;;;;4975069;28;20427;-70
2020/12/31 12:45:12;;;;;;;16.80;8.00;;;2.00;99.90;;;;;;4973879;28;20274;-70
2020/12/31 12:47:37;;;;;;;16.40;7.88;;;1.90;99.90;;;;;;4996120;28;20768;-69
2020/12/31 12:50:05;;;;;;;16.23;7.45;;;1.90;99.90;;;;;;4976393;28;20291;-70